Aérodrome :
LOGIN :

S'inscrire | Disclaimer

   EN    FR    IT 

 










Légende :    VFR   VFR Marginal   IFR   IFR Intensif   IFR Très Intensif
Visi : 
Plafond : 
>= 8 km
>= 3000ft
5 à 8 km
1000 à 3000 ft
1500m à 5 km
500 à 1000 ft
800 à 1500m
200 à 500 ft
< 800m
< 200 ft
Symboles :   Orages  Brouillard  Fortes neiges  Fortes précipitations  Vent > 20 kt
SIGMETs :   Divers  Orages  Givrage  Turbulence  Onde Orograph.  Cendres Volcan.






- Altitude de l'aérodrome : 427 ft
- Code IATA : KBP


UKBB - Boryspil'

DERNIER METAR :
  • 171430Z 13004MPS 5000 BR OVC004 08/07 Q1027 R88/CLRD// NOSIG

METARs EXPIRÉS :
  • 171400Z 13005MPS 5000 BR SCT004 OVC009 08/07 Q1027 R88/D NOSIG
  • 171330Z 14005MPS 7000 SCT006 OVC012 09/07 Q1027 R88/CLRD// NOSIG
  • 171300Z 13005MPS 8000 FEW006 OVC012 09/08 Q1027 R88/CLRD// NOSIG
  • 171230Z 14005MPS 9000 FEW009 BKN020 10/08 Q1027 R88/CLRD// NOSIG
  • 171200Z 14005MPS 7000 FEW009 BKN020 10/08 Q1027 R88/D NOSIG

TAF TAF UKBB
Valide du 17 à 12h jusqu'au 18 à 12h UTC


171100Z 1712/1812 12004G09MPS 6000 BKN007 TX10/1712Z TN05/1804Z
TEMPO 1712/1808 1600 BR BKN004
PROB40
TEMPO 1718/1806 0400 FG VV002



MET'MAP, la Météo Aéronautique d'un coup d'oeil ! - Copyright ORBIFLY Décembre 2007 - Disclaimer

ORBIFLY MET'MAP TEAM :

Programmation & Développement : Alexandra Zaïnal
Conception & Développement : Baudouin d'Aumeries
Co-Programmation & Développement : Marc-Olivier Méhu
Soutien technique & logistique : Manuel Goepfert

Contact : metmap@orbifly.com




SOURCES & CREDITS :

   NOAA